createdAt,value
2022-11-05T00:01:47.000Z,12.98
2022-11-05T00:04:32.189Z,13.04
2022-11-05T00:07:17.100Z,12.88
2022-11-05T00:10:02.018Z,12.87
2022-11-05T00:12:46.811Z,12.90
2022-11-05T00:15:31.874Z,12.98
2022-11-05T00:18:16.814Z,13.00
2022-11-05T00:21:02.009Z,13.02
2022-11-05T00:23:46.851Z,12.89
2022-11-05T00:26:31.613Z,12.71
2022-11-05T00:29:16.508Z,12.84
2022-11-05T00:32:01.500Z,12.84
2022-11-05T00:34:46.326Z,12.81
2022-11-05T00:37:31.181Z,12.75
2022-11-05T00:40:16.220Z,12.67
2022-11-05T00:43:01.204Z,12.71
2022-11-05T00:45:46.135Z,12.79
2022-11-05T00:48:31.100Z,12.71
2022-11-05T00:51:15.875Z,12.78
2022-11-05T00:54:00.920Z,12.87
2022-11-05T00:56:45.835Z,12.91
2022-11-05T00:59:30.685Z,13.10
2022-11-05T01:02:15.774Z,13.29
2022-11-05T01:05:01.147Z,13.32
2022-11-05T01:07:46.068Z,13.34
2022-11-05T01:10:30.992Z,13.26
2022-11-05T01:13:16.177Z,13.07
2022-11-05T01:16:01.255Z,13.01
2022-11-05T01:18:46.198Z,13.14
2022-11-05T01:21:30.985Z,12.96
2022-11-05T01:24:15.937Z,12.87
2022-11-05T01:27:00.711Z,12.91
2022-11-05T01:29:45.599Z,12.92
2022-11-05T01:32:30.577Z,12.98
2022-11-05T01:35:15.529Z,13.09
2022-11-05T01:38:00.293Z,13.01
2022-11-05T01:40:45.297Z,13.00
2022-11-05T01:43:30.281Z,13.02
2022-11-05T01:46:15.455Z,13.08
2022-11-05T01:49:03.278Z,13.19
2022-11-05T01:51:48.976Z,13.18
2022-11-05T01:54:34.309Z,13.09
2022-11-05T01:57:19.337Z,13.08
2022-11-05T02:00:04.254Z,13.02
2022-11-05T02:02:49.381Z,13.10
2022-11-05T02:05:34.840Z,13.26
2022-11-05T02:08:19.723Z,13.20
2022-11-05T02:11:04.625Z,13.20
2022-11-05T02:13:49.551Z,13.22
2022-11-05T02:16:34.392Z,13.20
2022-11-05T02:19:19.252Z,13.37
2022-11-05T02:22:04.264Z,13.25
2022-11-05T02:24:49.118Z,13.25
2022-11-05T02:27:34.075Z,13.41
2022-11-05T02:30:19.141Z,13.32
2022-11-05T02:33:03.977Z,13.41
2022-11-05T02:35:49.026Z,13.39
2022-11-05T02:38:33.840Z,13.42
2022-11-05T02:41:18.914Z,13.42
2022-11-05T02:44:03.826Z,13.28
2022-11-05T02:46:48.563Z,13.33
2022-11-05T02:49:33.363Z,13.22
2022-11-05T02:52:18.365Z,13.03
2022-11-05T02:55:03.417Z,13.21
2022-11-05T02:57:48.290Z,13.13
2022-11-05T03:00:33.197Z,13.06
2022-11-05T03:03:18.154Z,13.17
2022-11-05T03:06:03.080Z,13.08
2022-11-05T03:08:47.880Z,12.96
2022-11-05T03:11:32.879Z,12.90
2022-11-05T03:14:17.710Z,12.62
2022-11-05T03:17:02.619Z,12.83
2022-11-05T03:19:47.606Z,12.88
2022-11-05T03:22:32.621Z,12.81
2022-11-05T03:25:17.583Z,12.73
2022-11-05T03:28:02.426Z,12.79
2022-11-05T03:30:47.430Z,12.86
2022-11-05T03:33:32.224Z,12.74
2022-11-05T03:36:17.212Z,12.81
2022-11-05T03:39:02.154Z,12.96
2022-11-05T03:41:47.032Z,12.93
2022-11-05T03:44:31.974Z,12.92
2022-11-05T03:47:16.808Z,12.96
2022-11-05T03:50:01.777Z,12.81
2022-11-05T03:52:46.680Z,12.85
2022-11-05T03:55:31.665Z,12.62
2022-11-05T03:58:16.487Z,12.83
2022-11-05T04:01:01.419Z,12.68
2022-11-05T04:03:46.324Z,12.80
2022-11-05T04:06:31.221Z,12.79
2022-11-05T04:09:16.152Z,12.75
2022-11-05T04:12:01.088Z,12.84
2022-11-05T04:14:46.113Z,12.71
2022-11-05T04:17:30.895Z,12.58
2022-11-05T04:20:15.794Z,12.60
2022-11-05T04:23:00.491Z,12.52
2022-11-05T04:25:45.420Z,12.59
2022-11-05T04:28:30.242Z,12.71
2022-11-05T04:31:15.190Z,12.81
2022-11-05T04:34:00.150Z,12.89
2022-11-05T04:36:45.142Z,12.90
2022-11-05T04:39:30.082Z,12.87
2022-11-05T04:42:14.831Z,12.74
2022-11-05T04:44:59.818Z,12.72
2022-11-05T04:47:44.689Z,12.70
2022-11-05T04:50:29.625Z,12.71
2022-11-05T04:53:14.532Z,12.77
2022-11-05T04:55:59.756Z,12.77
2022-11-05T04:58:44.639Z,12.93
2022-11-05T05:01:29.722Z,12.81
2022-11-05T05:04:15.207Z,12.77
2022-11-05T05:07:00.458Z,12.73
2022-11-05T05:09:45.295Z,12.90
2022-11-05T05:12:30.061Z,12.87
2022-11-05T05:15:14.936Z,12.70
2022-11-05T05:17:59.698Z,12.74
2022-11-05T05:20:44.538Z,12.68
2022-11-05T05:23:29.381Z,12.83
2022-11-05T05:26:14.237Z,12.88
2022-11-05T05:28:59.278Z,12.85
2022-11-05T05:31:44.129Z,13.01
2022-11-05T05:34:29.118Z,13.06
2022-11-05T05:37:13.974Z,13.03
2022-11-05T05:39:58.920Z,12.99
2022-11-05T05:42:43.787Z,13.04
2022-11-05T05:45:28.989Z,13.12
2022-11-05T05:48:13.943Z,12.89
2022-11-05T05:50:58.894Z,13.10
2022-11-05T05:53:43.826Z,13.08
2022-11-05T05:56:28.799Z,13.08
2022-11-05T05:59:13.672Z,13.16
2022-11-05T06:01:58.570Z,13.02
2022-11-05T06:04:43.437Z,13.11
2022-11-05T06:07:30.740Z,13.10
2022-11-05T06:10:19.672Z,12.96
2022-11-05T06:13:04.517Z,13.03
2022-11-05T06:15:49.488Z,12.88
2022-11-05T06:18:34.495Z,12.87
2022-11-05T06:21:19.768Z,12.94
2022-11-05T06:24:04.498Z,12.85
2022-11-05T06:26:49.457Z,12.93
2022-11-05T06:29:34.244Z,12.90
2022-11-05T06:32:19.196Z,12.81
2022-11-05T06:35:04.072Z,12.77
2022-11-05T06:37:49.028Z,12.81
2022-11-05T06:40:33.994Z,12.80
2022-11-05T06:43:18.796Z,12.85
2022-11-05T06:46:03.792Z,12.89
2022-11-05T06:48:48.653Z,13.04
2022-11-05T06:51:33.550Z,12.98
2022-11-05T06:54:18.406Z,12.90
2022-11-05T06:57:03.510Z,12.94
2022-11-05T06:59:48.333Z,13.08
2022-11-05T07:02:33.261Z,13.09
2022-11-05T07:05:20.660Z,12.86
2022-11-05T07:08:05.752Z,12.96
2022-11-05T07:10:50.800Z,13.07
2022-11-05T07:13:35.707Z,13.20
2022-11-05T07:16:22.959Z,13.11
2022-11-05T07:19:08.200Z,13.08
2022-11-05T07:21:53.116Z,13.16
2022-11-05T07:24:38.046Z,13.21
2022-11-05T07:27:22.825Z,13.05
2022-11-05T07:30:07.837Z,12.95
2022-11-05T07:32:52.570Z,13.13
2022-11-05T07:35:37.542Z,13.13
2022-11-05T07:38:22.477Z,13.04
2022-11-05T07:41:07.331Z,12.97
2022-11-05T07:43:52.295Z,12.93
2022-11-05T07:46:37.115Z,13.12
2022-11-05T07:49:22.149Z,13.28
2022-11-05T07:52:07.001Z,13.15
2022-11-05T07:54:51.920Z,13.03
2022-11-05T07:57:36.784Z,13.21
2022-11-05T08:00:21.744Z,13.30
2022-11-05T08:03:09.539Z,13.31
2022-11-05T08:05:54.838Z,13.35
2022-11-05T08:08:39.781Z,13.23
2022-11-05T08:11:24.557Z,13.26
2022-11-05T08:14:09.515Z,13.27
2022-11-05T08:16:54.394Z,13.29
2022-11-05T08:19:39.206Z,13.30
2022-11-05T08:22:24.209Z,13.25
2022-11-05T08:25:09.013Z,13.31
2022-11-05T08:27:53.941Z,13.26
2022-11-05T08:30:38.839Z,13.20
2022-11-05T08:33:23.679Z,13.27
2022-11-05T08:36:08.547Z,13.37
2022-11-05T08:38:53.459Z,13.46
2022-11-05T08:41:41.417Z,13.35
2022-11-05T08:44:26.358Z,13.51
2022-11-05T08:47:11.063Z,13.53
2022-11-05T08:49:56.038Z,13.40
2022-11-05T08:52:40.842Z,13.63
2022-11-05T08:55:25.694Z,13.66
2022-11-05T08:58:10.732Z,13.60
2022-11-05T09:00:59.020Z,13.65
2022-11-05T09:03:47.009Z,13.67
2022-11-05T09:06:31.843Z,13.61
2022-11-05T09:09:16.885Z,13.51
2022-11-05T09:12:16.903Z,13.59
2022-11-05T09:15:01.786Z,13.53
2022-11-05T09:17:46.669Z,13.58
2022-11-05T09:20:31.664Z,13.65
2022-11-05T09:23:16.579Z,13.65
2022-11-05T09:26:01.521Z,13.56
2022-11-05T09:28:46.569Z,13.74
2022-11-05T09:31:31.467Z,13.71
2022-11-05T09:34:16.456Z,13.84
2022-11-05T09:37:01.213Z,13.81
2022-11-05T09:39:46.221Z,13.89
2022-11-05T09:42:31.051Z,13.96
2022-11-05T09:45:15.981Z,13.99
2022-11-05T09:48:00.781Z,13.94
2022-11-05T09:50:45.759Z,14.02
2022-11-05T09:53:30.680Z,14.08
2022-11-05T09:56:15.569Z,14.17
2022-11-05T09:59:00.599Z,13.96
2022-11-05T10:01:45.650Z,14.08
2022-11-05T10:04:31.059Z,14.34
2022-11-05T10:07:15.835Z,14.39
2022-11-05T10:10:00.815Z,14.57
2022-11-05T10:12:45.596Z,14.65
2022-11-05T10:15:30.556Z,14.50
2022-11-05T10:18:15.554Z,14.51
2022-11-05T10:21:00.376Z,14.59
2022-11-05T10:23:45.529Z,14.57
2022-11-05T10:26:30.242Z,14.73
2022-11-05T10:29:15.209Z,14.72
2022-11-05T10:31:59.983Z,14.67
2022-11-05T10:34:44.845Z,14.52
2022-11-05T10:37:29.840Z,14.42
2022-11-05T10:40:14.854Z,14.62
2022-11-05T10:42:59.753Z,14.66
2022-11-05T10:45:44.607Z,14.21
2022-11-05T10:48:29.610Z,14.59
2022-11-05T10:51:14.637Z,14.66
2022-11-05T10:54:02.173Z,14.61
2022-11-05T10:56:47.392Z,14.62
2022-11-05T10:59:32.384Z,14.62
2022-11-05T11:02:17.446Z,14.63
2022-11-05T11:05:02.240Z,14.57
2022-11-05T11:07:47.200Z,14.53
2022-11-05T11:10:32.037Z,14.55
2022-11-05T11:13:16.934Z,14.44
2022-11-05T11:16:01.620Z,14.31
2022-11-05T11:18:46.527Z,14.53
2022-11-05T11:21:31.658Z,14.49
2022-11-05T11:24:16.506Z,14.58
2022-11-05T11:27:01.698Z,14.52
2022-11-05T11:29:49.402Z,14.49
2022-11-05T11:32:34.563Z,14.56
2022-11-05T11:35:19.590Z,14.55
2022-11-05T11:38:04.620Z,14.56
2022-11-05T11:40:49.602Z,14.51
2022-11-05T11:43:34.336Z,14.54
2022-11-05T11:46:19.477Z,14.61
2022-11-05T11:49:04.436Z,14.59
2022-11-05T11:51:50.242Z,14.63
2022-11-05T11:54:35.535Z,14.61
2022-11-05T11:57:20.510Z,14.59
2022-11-05T12:00:09.696Z,14.59
2022-11-05T12:02:58.810Z,14.57
2022-11-05T12:05:46.673Z,14.50
2022-11-05T12:08:31.534Z,14.60
2022-11-05T12:11:16.609Z,14.56
2022-11-05T12:14:01.382Z,14.60
2022-11-05T12:16:46.331Z,14.60
2022-11-05T12:19:31.359Z,14.71
2022-11-05T12:22:16.160Z,14.72
2022-11-05T12:25:00.986Z,14.51
2022-11-05T12:27:45.919Z,14.51
2022-11-05T12:30:30.723Z,14.66
2022-11-05T12:33:16.247Z,14.38
2022-11-05T12:36:01.689Z,14.54
2022-11-05T12:38:46.569Z,14.65
2022-11-05T12:41:31.544Z,14.78
2022-11-05T12:44:16.296Z,14.82
2022-11-05T12:47:01.204Z,14.98
2022-11-05T12:49:46.068Z,15.06
2022-11-05T12:52:31.033Z,15.10
2022-11-05T12:55:16.023Z,15.18
2022-11-05T12:58:00.915Z,15.17
2022-11-05T13:00:45.815Z,15.11
2022-11-05T13:03:30.721Z,14.88
2022-11-05T13:06:15.739Z,14.86
2022-11-05T13:09:00.472Z,14.93
2022-11-05T13:11:45.337Z,15.09
2022-11-05T13:14:30.011Z,15.11
2022-11-05T13:17:14.938Z,15.15
2022-11-05T13:19:59.866Z,15.08
2022-11-05T13:22:44.750Z,15.01
2022-11-05T13:25:29.762Z,15.03
2022-11-05T13:28:14.588Z,14.83
2022-11-05T13:30:59.550Z,14.89
2022-11-05T13:33:44.457Z,14.98
2022-11-05T13:36:29.332Z,14.89
2022-11-05T13:39:14.233Z,14.93
2022-11-05T13:41:59.140Z,14.94
2022-11-05T13:44:44.139Z,14.89
2022-11-05T13:47:29.122Z,14.78
2022-11-05T13:50:14.135Z,14.80
2022-11-05T13:52:58.988Z,14.74
2022-11-05T13:55:44.070Z,14.88
2022-11-05T13:58:28.910Z,14.81
2022-11-05T14:01:13.839Z,14.83
2022-11-05T14:03:58.730Z,14.78
2022-11-05T14:06:43.805Z,14.70
2022-11-05T14:09:29.088Z,14.69
2022-11-05T14:12:14.098Z,14.79
2022-11-05T14:14:59.354Z,14.77
2022-11-05T14:17:44.341Z,14.96
2022-11-05T14:20:29.162Z,14.89
2022-11-05T14:23:14.328Z,14.92
2022-11-05T14:25:59.491Z,14.97
2022-11-05T14:28:44.397Z,14.95
2022-11-05T14:31:47.208Z,15.11
2022-11-05T14:34:32.962Z,14.98
2022-11-05T14:37:17.714Z,15.11
2022-11-05T14:40:02.761Z,15.15
2022-11-05T14:42:47.678Z,15.03
2022-11-05T14:45:33.754Z,15.00
2022-11-05T14:48:18.924Z,14.88
2022-11-05T14:51:03.833Z,15.00
2022-11-05T14:53:48.784Z,14.92
2022-11-05T14:56:33.628Z,14.77
2022-11-05T14:59:18.508Z,14.79
2022-11-05T15:02:03.585Z,14.76
2022-11-05T15:04:48.764Z,14.83
2022-11-05T15:07:33.862Z,14.67
2022-11-05T15:10:18.760Z,14.50
2022-11-05T15:13:03.659Z,14.51
2022-11-05T15:15:48.607Z,14.41
2022-11-05T15:18:33.483Z,14.40
2022-11-05T15:21:18.412Z,14.34
2022-11-05T15:24:03.342Z,14.21
2022-11-05T15:26:48.202Z,14.12
2022-11-05T15:29:33.311Z,14.12
2022-11-05T15:32:18.287Z,14.11
2022-11-05T15:35:03.232Z,14.11
2022-11-05T15:37:53.428Z,14.14
2022-11-05T15:40:41.299Z,14.05
2022-11-05T15:43:26.310Z,13.96
2022-11-05T15:46:11.237Z,13.93
2022-11-05T15:48:56.081Z,13.98
2022-11-05T15:51:41.059Z,13.90
2022-11-05T15:54:30.574Z,13.86
2022-11-05T15:57:16.304Z,13.79
2022-11-05T16:00:01.262Z,13.63
2022-11-05T16:02:46.224Z,13.65
2022-11-05T16:05:31.455Z,13.53
2022-11-05T16:08:16.406Z,13.58
2022-11-05T16:11:01.238Z,13.46
2022-11-05T16:13:46.051Z,13.36
2022-11-05T16:16:31.082Z,13.41
2022-11-05T16:19:16.060Z,13.37
2022-11-05T16:22:00.909Z,13.28
2022-11-05T16:24:45.866Z,13.40
2022-11-05T16:27:30.774Z,13.25
2022-11-05T16:30:15.498Z,13.24
2022-11-05T16:33:00.455Z,13.25
2022-11-05T16:35:45.208Z,13.26
2022-11-05T16:38:30.138Z,13.23
2022-11-05T16:41:15.018Z,13.37
2022-11-05T16:43:59.936Z,13.31
2022-11-05T16:46:44.893Z,13.29
2022-11-05T16:49:29.902Z,13.27
2022-11-05T16:52:14.767Z,13.25
2022-11-05T16:54:59.680Z,13.31
2022-11-05T16:57:44.591Z,13.30
2022-11-05T17:00:29.459Z,13.19
2022-11-05T17:03:14.364Z,13.28
2022-11-05T17:05:59.235Z,13.18
2022-11-05T17:08:44.127Z,13.20
2022-11-05T17:11:28.959Z,13.26
2022-11-05T17:14:13.992Z,13.19
2022-11-05T17:16:58.882Z,13.24
2022-11-05T17:19:43.806Z,13.18
2022-11-05T17:22:28.639Z,13.05
2022-11-05T17:25:13.488Z,12.99
2022-11-05T17:27:58.478Z,13.10
2022-11-05T17:30:46.649Z,13.00
2022-11-05T17:33:35.887Z,12.91
2022-11-05T17:36:20.722Z,12.88
2022-11-05T17:39:05.700Z,12.97
2022-11-05T17:41:50.735Z,12.87
2022-11-05T17:44:35.576Z,12.81
2022-11-05T17:47:20.578Z,12.85
2022-11-05T17:50:05.549Z,12.91
2022-11-05T17:52:50.384Z,12.92
2022-11-05T17:55:35.305Z,12.97
2022-11-05T17:58:20.182Z,13.00
2022-11-05T18:01:05.263Z,12.89
2022-11-05T18:03:50.042Z,12.96
2022-11-05T18:06:35.009Z,12.98
2022-11-05T18:09:20.447Z,13.02
2022-11-05T18:12:05.424Z,12.96
2022-11-05T18:14:50.270Z,12.92
2022-11-05T18:17:35.161Z,12.99
2022-11-05T18:20:20.098Z,12.93
2022-11-05T18:23:04.928Z,12.92
2022-11-05T18:25:49.867Z,12.91
2022-11-05T18:28:34.775Z,12.96
2022-11-05T18:31:19.527Z,13.05
2022-11-05T18:34:04.563Z,12.97
2022-11-05T18:36:55.040Z,12.93
2022-11-05T18:39:41.320Z,12.91
2022-11-05T18:42:26.221Z,12.98
2022-11-05T18:45:11.069Z,13.04
2022-11-05T18:47:57.184Z,12.91
2022-11-05T18:50:42.660Z,12.98
2022-11-05T18:53:29.968Z,12.91
2022-11-05T18:56:15.091Z,12.97
2022-11-05T18:59:29.934Z,12.89
2022-11-05T19:02:05.118Z,12.81
2022-11-05T19:05:14.424Z,12.97
2022-11-05T19:07:55.686Z,12.95
2022-11-05T19:10:40.631Z,12.87
2022-11-05T19:13:25.682Z,12.92
2022-11-05T19:16:10.478Z,12.93
2022-11-05T19:18:55.486Z,12.94
2022-11-05T19:21:40.286Z,12.92
2022-11-05T19:24:25.057Z,12.92
2022-11-05T19:27:09.869Z,12.93
2022-11-05T19:29:54.819Z,12.91
2022-11-05T19:32:39.778Z,12.89
2022-11-05T19:35:24.704Z,12.71
2022-11-05T19:38:10.144Z,12.76
2022-11-05T19:40:55.720Z,12.83
2022-11-05T19:43:40.736Z,12.81
2022-11-05T19:46:25.556Z,12.76
2022-11-05T19:49:13.672Z,12.71
2022-11-05T19:51:58.726Z,12.65
2022-11-05T19:54:43.535Z,12.70
2022-11-05T19:57:28.593Z,12.80
2022-11-05T20:00:13.448Z,12.67
2022-11-05T20:02:58.591Z,12.62
2022-11-05T20:05:43.912Z,12.77
2022-11-05T20:08:28.750Z,12.63
2022-11-05T20:11:13.653Z,12.67
2022-11-05T20:13:58.562Z,12.73
2022-11-05T20:16:43.437Z,12.65
2022-11-05T20:19:28.256Z,12.69
2022-11-05T20:22:13.303Z,12.71
2022-11-05T20:24:58.136Z,12.49
2022-11-05T20:27:43.208Z,12.51
2022-11-05T20:30:28.148Z,12.51
2022-11-05T20:33:13.012Z,12.66
2022-11-05T20:35:57.863Z,12.51
2022-11-05T20:38:42.724Z,12.51
2022-11-05T20:41:27.654Z,12.48
2022-11-05T20:44:12.531Z,12.55
2022-11-05T20:46:57.453Z,12.42
2022-11-05T20:49:42.266Z,12.44
2022-11-05T20:52:26.944Z,12.37
2022-11-05T20:55:12.364Z,12.32
2022-11-05T20:57:57.306Z,12.38
2022-11-05T21:00:42.323Z,12.57
2022-11-05T21:03:27.244Z,12.50
2022-11-05T21:06:12.187Z,12.40
2022-11-05T21:08:57.063Z,12.38
2022-11-05T21:11:42.003Z,12.47
2022-11-05T21:14:26.867Z,12.46
2022-11-05T21:17:11.766Z,12.47
2022-11-05T21:19:56.657Z,12.50
2022-11-05T21:22:41.597Z,12.64
2022-11-05T21:25:26.451Z,12.58
2022-11-05T21:28:11.633Z,12.49
2022-11-05T21:30:57.172Z,12.55
2022-11-05T21:33:41.974Z,12.53
2022-11-05T21:36:27.178Z,12.42
2022-11-05T21:39:13.809Z,12.43
2022-11-05T21:41:58.751Z,12.42
2022-11-05T21:44:43.601Z,12.45
2022-11-05T21:47:28.541Z,12.51
2022-11-05T21:50:16.051Z,12.51
2022-11-05T21:53:03.397Z,12.40
2022-11-05T21:55:48.253Z,12.42
2022-11-05T21:58:33.298Z,12.47
2022-11-05T22:01:18.237Z,12.63
2022-11-05T22:04:03.566Z,12.53
2022-11-05T22:06:48.372Z,12.38
2022-11-05T22:09:33.158Z,12.34
2022-11-05T22:12:18.089Z,12.29
2022-11-05T22:15:02.946Z,12.37
2022-11-05T22:17:47.833Z,12.37
2022-11-05T22:20:32.726Z,12.39
2022-11-05T22:23:17.595Z,12.39
2022-11-05T22:26:02.467Z,12.41
2022-11-05T22:28:47.452Z,12.13
2022-11-05T22:31:36.218Z,12.03
2022-11-05T22:34:21.789Z,12.12
2022-11-05T22:37:06.707Z,12.22
2022-11-05T22:39:51.604Z,12.19
2022-11-05T22:42:36.624Z,12.15
2022-11-05T22:45:21.586Z,12.06
2022-11-05T22:48:06.997Z,11.91
2022-11-05T22:50:52.467Z,11.86
2022-11-05T22:53:37.559Z,11.92
2022-11-05T22:56:22.684Z,11.84
2022-11-05T22:59:07.756Z,11.87
2022-11-05T23:01:52.800Z,12.02
2022-11-05T23:05:14.532Z,11.63
2022-11-05T23:07:59.499Z,11.47
2022-11-05T23:10:44.599Z,11.11
2022-11-05T23:13:29.500Z,10.88
2022-11-05T23:16:14.522Z,10.67
2022-11-05T23:18:59.459Z,10.38
2022-11-05T23:21:44.423Z,10.37
2022-11-05T23:24:29.336Z,10.04
2022-11-05T23:27:14.304Z,10.15
2022-11-05T23:29:59.242Z,9.94
2022-11-05T23:32:44.103Z,10.11
2022-11-05T23:35:29.019Z,10.07
2022-11-05T23:38:14.117Z,10.02
2022-11-05T23:40:59.681Z,10.23
2022-11-05T23:43:44.661Z,10.26
2022-11-05T23:46:29.572Z,10.08
2022-11-05T23:49:14.666Z,10.10
2022-11-05T23:51:59.613Z,10.16
2022-11-05T23:54:44.717Z,10.16
2022-11-05T23:57:29.509Z,10.13
